createdAt,value
2022-11-13T00:01:18.988Z,79.20
2022-11-13T00:03:46.558Z,79.30
2022-11-13T00:06:14.704Z,79.30
2022-11-13T00:08:42.678Z,79.40
2022-11-13T00:11:19.967Z,79.50
2022-11-13T00:13:48.615Z,79.50
2022-11-13T00:16:18.411Z,79.60
2022-11-13T00:18:46.065Z,79.70
2022-11-13T00:21:19.758Z,79.60
2022-11-13T00:23:46.619Z,79.80
2022-11-13T00:26:17.984Z,79.80
2022-11-13T00:28:44.875Z,79.90
2022-11-13T00:31:13.959Z,79.90
2022-11-13T00:36:29.193Z,80.00
2022-11-13T00:38:55.993Z,80.00
2022-11-13T00:41:24.061Z,79.90
2022-11-13T00:43:51.485Z,80.10
2022-11-13T00:46:22.167Z,80.00
2022-11-13T00:48:49.110Z,80.00
2022-11-13T00:51:16.018Z,80.00
2022-11-13T00:53:42.760Z,80.00
2022-11-13T00:56:09.681Z,79.90
2022-11-13T00:58:36.648Z,80.00
2022-11-13T01:01:11.688Z,80.00
2022-11-13T01:03:39.673Z,80.10
2022-11-13T01:06:16.833Z,80.10
2022-11-13T01:08:43.817Z,80.00
2022-11-13T01:11:13.725Z,80.00
2022-11-13T01:13:42.161Z,80.20
2022-11-13T01:16:10.691Z,80.30
2022-11-13T01:18:37.515Z,80.30
2022-11-13T01:21:06.898Z,80.30
2022-11-13T01:23:37.523Z,80.40
2022-11-13T01:26:07.823Z,80.40
2022-11-13T01:28:37.032Z,80.40
2022-11-13T01:31:16.690Z,80.40
2022-11-13T01:33:45.203Z,80.40
2022-11-13T01:36:20.818Z,80.40
2022-11-13T01:38:48.445Z,80.40
2022-11-13T01:41:24.431Z,80.40
2022-11-13T01:43:55.366Z,80.50
2022-11-13T01:46:28.098Z,80.50
2022-11-13T01:48:59.972Z,80.60
2022-11-13T01:51:33.970Z,80.60
2022-11-13T01:54:04.890Z,80.60
2022-11-13T01:56:31.867Z,80.60
2022-11-13T01:59:07.107Z,80.60
2022-11-13T02:01:36.853Z,80.70
2022-11-13T02:04:03.692Z,80.60
2022-11-13T02:06:40.902Z,80.60
2022-11-13T02:09:09.485Z,80.50
2022-11-13T02:11:37.719Z,80.60
2022-11-13T02:14:05.660Z,80.60
2022-11-13T02:16:36.070Z,80.60
2022-11-13T02:19:07.788Z,80.60
2022-11-13T02:21:56.106Z,80.60
2022-11-13T02:24:37.772Z,80.60
2022-11-13T02:27:10.097Z,80.70
2022-11-13T02:29:36.845Z,80.60
2022-11-13T02:32:03.578Z,80.60
2022-11-13T02:34:30.338Z,80.70
2022-11-13T02:36:57.080Z,80.60
2022-11-13T02:39:23.891Z,80.70
2022-11-13T02:41:50.571Z,80.70
2022-11-13T02:44:17.556Z,80.60
2022-11-13T02:46:44.323Z,80.60
2022-11-13T02:49:14.250Z,80.60
2022-11-13T02:51:41.053Z,80.70
2022-11-13T02:54:07.792Z,80.70
2022-11-13T02:56:34.533Z,80.70
2022-11-13T02:59:01.336Z,80.70
2022-11-13T03:01:28.186Z,80.80
2022-11-13T03:03:57.767Z,80.70
2022-11-13T03:06:25.177Z,80.70
2022-11-13T03:08:51.879Z,80.80
2022-11-13T03:11:18.779Z,80.70
2022-11-13T03:13:56.504Z,80.70
2022-11-13T03:16:28.818Z,80.70
2022-11-13T03:18:56.418Z,80.80
2022-11-13T03:21:23.253Z,80.90
2022-11-13T03:23:50.021Z,80.80
2022-11-13T03:26:17.691Z,80.80
2022-11-13T03:28:44.500Z,80.90
2022-11-13T03:31:11.309Z,80.80
2022-11-13T03:33:38.027Z,80.90
2022-11-13T03:36:05.490Z,81.10
2022-11-13T03:38:32.503Z,81.10
2022-11-13T03:40:59.554Z,81.10
2022-11-13T03:43:26.241Z,81.10
2022-11-13T03:45:53.028Z,81.20
2022-11-13T03:48:19.797Z,81.20
2022-11-13T03:50:49.918Z,81.20
2022-11-13T03:53:16.759Z,81.30
2022-11-13T03:55:44.260Z,81.40
2022-11-13T03:58:14.131Z,81.40
2022-11-13T04:00:42.855Z,81.40
2022-11-13T04:03:10.439Z,81.40
2022-11-13T04:05:37.792Z,81.40
2022-11-13T04:08:05.238Z,81.30
2022-11-13T04:10:32.038Z,81.40
2022-11-13T04:12:58.790Z,81.40
2022-11-13T04:15:25.597Z,81.40
2022-11-13T04:17:52.351Z,81.40
2022-11-13T04:20:19.253Z,81.40
2022-11-13T04:22:45.983Z,81.40
2022-11-13T04:25:12.796Z,81.40
2022-11-13T04:27:46.750Z,81.40
2022-11-13T04:30:13.530Z,81.50
2022-11-13T04:32:43.663Z,81.40
2022-11-13T04:35:10.882Z,81.40
2022-11-13T04:37:37.604Z,81.50
2022-11-13T04:40:05.406Z,81.50
2022-11-13T04:42:50.624Z,81.50
2022-11-13T04:45:24.158Z,81.40
2022-11-13T04:47:51.611Z,81.40
2022-11-13T04:50:18.857Z,81.30
2022-11-13T04:52:45.892Z,81.30
2022-11-13T04:55:13.363Z,81.40
2022-11-13T04:57:40.646Z,81.40
2022-11-13T05:00:09.058Z,81.40
2022-11-13T05:02:36.035Z,81.40
2022-11-13T05:05:05.182Z,81.30
2022-11-13T05:07:32.340Z,81.40
2022-11-13T05:09:59.666Z,81.30
2022-11-13T05:12:26.434Z,81.20
2022-11-13T05:14:53.176Z,81.30
2022-11-13T05:17:23.244Z,81.30
2022-11-13T05:19:49.966Z,81.40
2022-11-13T05:22:16.792Z,81.30
2022-11-13T05:24:43.548Z,81.40
2022-11-13T05:27:17.097Z,81.30
2022-11-13T05:29:44.601Z,81.30
2022-11-13T05:32:14.702Z,81.30
2022-11-13T05:34:41.506Z,81.20
2022-11-13T05:37:08.227Z,81.20
2022-11-13T05:39:35.010Z,81.20
2022-11-13T05:42:01.689Z,81.20
2022-11-13T05:44:28.542Z,81.20
2022-11-13T05:46:55.273Z,81.10
2022-11-13T05:49:21.967Z,81.10
2022-11-13T05:51:48.819Z,81.20
2022-11-13T05:54:15.655Z,81.10
2022-11-13T05:56:44.309Z,81.10
2022-11-13T05:59:11.160Z,81.10
2022-11-13T06:01:40.146Z,81.10
2022-11-13T06:04:08.054Z,81.10
2022-11-13T06:06:35.335Z,81.10
2022-11-13T06:09:04.623Z,81.20
2022-11-13T06:11:34.710Z,81.10
2022-11-13T06:14:01.815Z,81.10
2022-11-13T06:16:33.848Z,81.10
2022-11-13T06:19:03.934Z,81.10
2022-11-13T06:21:32.529Z,81.20
2022-11-13T06:24:01.540Z,81.00
2022-11-13T06:26:31.772Z,81.00
2022-11-13T06:28:59.719Z,81.10
2022-11-13T06:31:32.115Z,81.10
2022-11-13T06:33:59.966Z,81.10
2022-11-13T06:36:33.364Z,81.10
2022-11-13T06:39:00.683Z,81.20
2022-11-13T06:41:31.277Z,81.00
2022-11-13T06:44:02.612Z,81.10
2022-11-13T06:46:30.873Z,81.20
2022-11-13T06:48:57.979Z,81.20
2022-11-13T06:51:28.181Z,81.00
2022-11-13T06:53:55.429Z,81.10
2022-11-13T06:56:22.711Z,81.10
2022-11-13T06:58:49.767Z,81.90
2022-11-13T07:01:27.132Z,81.20
2022-11-13T07:03:54.119Z,81.20
2022-11-13T07:06:22.905Z,81.20
2022-11-13T07:08:49.864Z,81.20
2022-11-13T07:11:22.494Z,81.20
2022-11-13T07:13:49.992Z,81.10
2022-11-13T07:16:19.412Z,81.10
2022-11-13T07:18:53.425Z,81.10
2022-11-13T07:21:21.334Z,81.10
2022-11-13T07:23:51.157Z,81.10
2022-11-13T07:26:18.667Z,81.10
2022-11-13T07:28:46.258Z,81.10
2022-11-13T07:31:14.266Z,81.10
2022-11-13T07:33:41.070Z,81.10
2022-11-13T07:36:11.190Z,81.10
2022-11-13T07:38:38.262Z,81.10
2022-11-13T07:41:05.488Z,81.10
2022-11-13T07:43:32.211Z,81.10
2022-11-13T07:46:00.323Z,81.10
2022-11-13T07:48:28.137Z,81.10
2022-11-13T07:50:55.433Z,81.10
2022-11-13T07:53:25.729Z,81.10
2022-11-13T07:55:55.766Z,81.10
2022-11-13T07:58:22.766Z,81.10
2022-11-13T08:00:49.527Z,81.10
2022-11-13T08:03:17.565Z,81.10
2022-11-13T08:05:44.509Z,81.20
2022-11-13T08:08:15.100Z,81.30
2022-11-13T08:10:44.567Z,81.30
2022-11-13T08:13:11.697Z,81.40
2022-11-13T08:15:38.559Z,82.50
2022-11-13T08:18:06.176Z,83.90
2022-11-13T08:20:33.697Z,83.40
2022-11-13T08:23:02.066Z,81.10
2022-11-13T08:25:30.676Z,79.40
2022-11-13T08:27:57.722Z,77.70
2022-11-13T08:30:26.349Z,75.90
2022-11-13T08:32:53.658Z,74.30
2022-11-13T08:35:25.178Z,72.70
2022-11-13T08:37:53.560Z,71.30
2022-11-13T08:40:20.353Z,70.00
2022-11-13T08:42:47.174Z,68.70
2022-11-13T08:45:14.383Z,67.50
2022-11-13T08:47:43.812Z,66.40
2022-11-13T08:50:10.731Z,66.00
2022-11-13T08:52:37.548Z,66.10
2022-11-13T08:55:04.686Z,66.40
2022-11-13T08:57:31.421Z,66.90
2022-11-13T08:59:58.387Z,67.50
2022-11-13T09:02:25.281Z,68.40
2022-11-13T09:04:52.159Z,69.10
2022-11-13T09:07:23.285Z,69.80
2022-11-13T09:09:52.915Z,70.50
2022-11-13T09:12:19.988Z,71.20
2022-11-13T09:14:46.743Z,71.70
2022-11-13T09:17:13.674Z,72.10
2022-11-13T09:19:40.497Z,72.50
2022-11-13T09:22:10.340Z,73.00
2022-11-13T09:24:37.666Z,73.40
2022-11-13T09:27:04.596Z,73.90
2022-11-13T09:29:31.410Z,74.00
2022-11-13T09:31:58.177Z,74.10
2022-11-13T09:34:26.376Z,74.30
2022-11-13T09:36:53.530Z,74.60
2022-11-13T09:39:20.518Z,74.60
2022-11-13T09:42:18.723Z,74.80
2022-11-13T09:44:53.969Z,74.70
2022-11-13T09:47:26.552Z,74.80
2022-11-13T09:50:11.397Z,74.70
2022-11-13T09:52:41.967Z,74.70
2022-11-13T09:55:18.648Z,74.80
2022-11-13T09:58:05.322Z,74.50
2022-11-13T10:00:34.375Z,74.60
2022-11-13T10:06:18.968Z,74.70
2022-11-13T10:08:58.532Z,74.60
2022-11-13T10:11:36.575Z,74.30
2022-11-13T10:14:16.485Z,74.50
2022-11-13T10:17:06.951Z,74.60
2022-11-13T10:19:45.136Z,74.50
2022-11-13T10:22:34.849Z,74.40
2022-11-13T10:25:20.273Z,74.30
2022-11-13T10:28:00.149Z,74.20
2022-11-13T10:30:27.826Z,74.10
2022-11-13T10:32:54.587Z,73.90
2022-11-13T10:35:45.698Z,73.70
2022-11-13T10:38:25.028Z,73.70
2022-11-13T10:40:52.040Z,73.20
2022-11-13T10:43:25.698Z,73.20
2022-11-13T10:46:01.815Z,72.90
2022-11-13T10:48:37.606Z,72.90
2022-11-13T10:51:23.778Z,72.60
2022-11-13T10:53:51.097Z,72.50
2022-11-13T10:56:36.499Z,72.30
2022-11-13T10:59:13.436Z,72.30
2022-11-13T11:01:41.925Z,71.90
2022-11-13T11:04:29.056Z,71.80
2022-11-13T11:07:20.200Z,71.80
2022-11-13T11:09:49.383Z,71.60
2022-11-13T11:12:30.373Z,71.50
2022-11-13T11:14:58.581Z,71.30
2022-11-13T11:17:51.525Z,72.40
2022-11-13T11:20:23.936Z,71.30
2022-11-13T11:23:13.591Z,71.10
2022-11-13T11:26:04.019Z,70.80
2022-11-13T11:28:40.373Z,70.70
2022-11-13T11:31:28.425Z,70.60
2022-11-13T11:34:04.379Z,70.40
2022-11-13T11:36:57.627Z,70.10
2022-11-13T11:39:47.504Z,70.40
2022-11-13T11:42:38.465Z,69.60
2022-11-13T11:45:25.539Z,69.60
2022-11-13T11:47:53.908Z,69.50
2022-11-13T11:50:52.087Z,69.00
2022-11-13T11:53:39.587Z,69.80
2022-11-13T11:56:27.659Z,68.70
2022-11-13T11:59:19.698Z,68.50
2022-11-13T12:02:01.900Z,68.00
2022-11-13T12:04:38.721Z,67.80
2022-11-13T12:07:29.620Z,67.40
2022-11-13T12:09:59.108Z,67.30
2022-11-13T12:12:40.708Z,67.30
2022-11-13T12:15:31.145Z,66.90
2022-11-13T12:18:22.330Z,66.80
2022-11-13T12:21:02.575Z,66.30
2022-11-13T12:23:35.153Z,66.30
2022-11-13T12:26:14.982Z,66.00
2022-11-13T12:29:16.797Z,65.50
2022-11-13T12:32:14.315Z,65.60
2022-11-13T12:34:51.377Z,65.80
2022-11-13T12:37:32.823Z,65.30
2022-11-13T12:40:14.658Z,64.90
2022-11-13T12:42:57.283Z,64.70
2022-11-13T12:45:38.109Z,64.30
2022-11-13T12:48:11.460Z,64.20
2022-11-13T12:50:38.236Z,64.00
2022-11-13T12:53:08.831Z,63.80
2022-11-13T12:55:38.327Z,63.50
2022-11-13T12:58:10.543Z,63.10
2022-11-13T13:00:51.437Z,62.90
2022-11-13T13:03:31.384Z,62.60
2022-11-13T13:06:12.345Z,62.80
2022-11-13T13:08:46.574Z,62.50
2022-11-13T13:11:42.926Z,62.40
2022-11-13T13:14:40.468Z,62.10
2022-11-13T13:17:27.586Z,63.10
2022-11-13T13:20:10.917Z,62.90
2022-11-13T13:22:37.712Z,62.40
2022-11-13T13:25:22.225Z,62.40
2022-11-13T13:28:08.214Z,62.20
2022-11-13T13:31:06.066Z,62.10
2022-11-13T13:33:54.433Z,62.40
2022-11-13T13:36:35.111Z,62.10
2022-11-13T13:39:23.067Z,61.90
2022-11-13T13:42:21.150Z,61.90
2022-11-13T13:45:31.266Z,61.90
2022-11-13T13:47:58.935Z,62.10
2022-11-13T13:50:29.531Z,61.90
2022-11-13T13:52:58.812Z,61.50
2022-11-13T13:55:38.786Z,61.40
2022-11-13T13:58:12.806Z,62.20
2022-11-13T14:00:59.068Z,62.00
2022-11-13T14:03:28.138Z,61.80
2022-11-13T14:06:00.939Z,61.00
2022-11-13T14:08:30.297Z,60.30
2022-11-13T14:10:57.521Z,59.30
2022-11-13T14:13:26.737Z,58.60
2022-11-13T14:16:02.141Z,58.10
2022-11-13T14:18:29.502Z,58.10
2022-11-13T14:20:59.205Z,58.30
2022-11-13T14:23:32.593Z,58.40
2022-11-13T14:25:59.868Z,58.50
2022-11-13T14:28:43.887Z,58.60
2022-11-13T14:31:12.974Z,58.70
2022-11-13T14:34:01.947Z,58.90
2022-11-13T14:36:34.050Z,59.10
2022-11-13T14:39:01.115Z,59.20
2022-11-13T14:41:39.454Z,59.40
2022-11-13T14:44:06.216Z,59.70
2022-11-13T14:46:47.737Z,60.00
2022-11-13T14:49:25.782Z,60.20
2022-11-13T14:51:57.523Z,60.60
2022-11-13T14:55:13.164Z,60.60
2022-11-13T14:57:26.050Z,60.70
2022-11-13T14:59:52.726Z,61.00
2022-11-13T15:02:20.311Z,61.00
2022-11-13T15:04:47.037Z,61.00
2022-11-13T15:07:31.626Z,60.90
2022-11-13T15:09:59.222Z,61.10
2022-11-13T15:12:26.063Z,61.20
2022-11-13T15:14:53.975Z,61.30
2022-11-13T15:17:22.578Z,62.10
2022-11-13T15:19:52.695Z,61.40
2022-11-13T15:22:28.098Z,61.60
2022-11-13T15:24:55.467Z,61.60
2022-11-13T15:27:22.182Z,61.80
2022-11-13T15:29:49.032Z,61.80
2022-11-13T15:32:16.246Z,61.90
2022-11-13T15:34:43.472Z,61.90
2022-11-13T15:37:15.209Z,61.90
2022-11-13T15:39:42.435Z,62.10
2022-11-13T15:42:15.049Z,62.10
2022-11-13T15:44:41.838Z,62.10
2022-11-13T15:47:32.184Z,62.20
2022-11-13T15:50:15.837Z,62.20
2022-11-13T15:52:47.223Z,62.20
2022-11-13T15:55:29.472Z,62.30
2022-11-13T15:57:57.333Z,62.40
2022-11-13T16:00:30.472Z,62.40
2022-11-13T16:03:00.801Z,62.50
2022-11-13T16:05:29.582Z,62.70
2022-11-13T16:07:56.873Z,62.80
2022-11-13T16:10:27.022Z,62.90
2022-11-13T16:12:54.206Z,63.00
2022-11-13T16:15:21.600Z,63.20
2022-11-13T16:17:54.467Z,63.20
2022-11-13T16:20:21.340Z,63.40
2022-11-13T16:22:48.290Z,63.40
2022-11-13T16:25:20.308Z,63.40
2022-11-13T16:27:47.696Z,63.50
2022-11-13T16:30:17.546Z,63.40
2022-11-13T16:32:44.482Z,63.40
2022-11-13T16:35:19.331Z,63.40
2022-11-13T16:37:46.157Z,63.40
2022-11-13T16:40:26.585Z,63.50
2022-11-13T16:42:53.897Z,63.40
2022-11-13T16:45:21.703Z,63.50
2022-11-13T16:47:50.724Z,63.50
2022-11-13T16:50:20.119Z,63.50
2022-11-13T16:52:46.824Z,63.50
2022-11-13T16:55:13.611Z,63.60
2022-11-13T16:57:43.707Z,63.80
2022-11-13T17:00:14.719Z,63.90
2022-11-13T17:02:41.857Z,63.90
2022-11-13T17:05:13.992Z,64.00
2022-11-13T17:07:41.230Z,65.00
2022-11-13T17:10:33.867Z,64.30
2022-11-13T17:13:01.118Z,64.40
2022-11-13T17:15:31.281Z,64.40
2022-11-13T17:17:58.702Z,64.50
2022-11-13T17:20:25.661Z,64.50
2022-11-13T17:22:52.433Z,64.60
2022-11-13T17:25:20.620Z,64.70
2022-11-13T17:27:47.416Z,64.80
2022-11-13T17:30:14.545Z,65.10
2022-11-13T17:32:41.520Z,65.10
2022-11-13T17:35:09.349Z,65.20
2022-11-13T17:37:36.249Z,65.40
2022-11-13T17:40:02.994Z,65.40
2022-11-13T17:42:29.774Z,65.50
2022-11-13T17:44:56.522Z,65.50
2022-11-13T17:47:23.232Z,65.70
2022-11-13T17:49:53.007Z,66.80
2022-11-13T17:52:19.839Z,67.00
2022-11-13T17:54:46.526Z,67.00
2022-11-13T17:57:13.246Z,67.10
2022-11-13T17:59:41.281Z,67.10
2022-11-13T18:02:11.387Z,67.20
2022-11-13T18:04:38.063Z,67.30
2022-11-13T18:07:04.872Z,67.30
2022-11-13T18:09:35.624Z,67.30
2022-11-13T18:12:02.348Z,67.40
2022-11-13T18:14:29.103Z,67.50
2022-11-13T18:16:55.869Z,68.60
2022-11-13T18:19:22.585Z,67.80
2022-11-13T18:21:49.422Z,67.90
2022-11-13T18:24:18.131Z,68.00
2022-11-13T18:26:45.596Z,68.10
2022-11-13T18:29:12.363Z,68.20
2022-11-13T18:31:39.287Z,68.20
2022-11-13T18:34:07.300Z,68.30
2022-11-13T18:36:34.888Z,68.40
2022-11-13T18:39:04.723Z,68.50
2022-11-13T18:41:32.765Z,68.60
2022-11-13T18:43:59.487Z,68.70
2022-11-13T18:46:26.445Z,68.90
2022-11-13T18:48:54.797Z,68.90
2022-11-13T18:51:24.615Z,69.00
2022-11-13T18:53:53.064Z,69.20
2022-11-13T18:56:28.761Z,69.10
2022-11-13T18:58:56.870Z,69.20
2022-11-13T19:01:29.104Z,69.20
2022-11-13T19:04:22.325Z,69.30
2022-11-13T19:06:52.788Z,69.40
2022-11-13T19:09:20.132Z,69.50
2022-11-13T19:11:47.303Z,69.50
2022-11-13T19:14:17.815Z,69.70
2022-11-13T19:16:44.757Z,69.90
2022-11-13T19:19:20.639Z,69.80
2022-11-13T19:21:47.661Z,70.00
2022-11-13T19:24:15.060Z,70.10
2022-11-13T19:26:42.840Z,70.10
2022-11-13T19:29:10.570Z,70.20
2022-11-13T19:31:37.355Z,70.30
2022-11-13T19:34:07.150Z,70.40
2022-11-13T19:36:35.063Z,70.40
2022-11-13T19:39:02.182Z,70.50
2022-11-13T19:41:29.904Z,70.60
2022-11-13T19:43:59.709Z,70.60
2022-11-13T19:46:27.148Z,70.70
2022-11-13T19:49:47.978Z,70.70
2022-11-13T19:52:15.032Z,70.80
2022-11-13T19:54:42.123Z,70.70
2022-11-13T19:57:09.105Z,70.80
2022-11-13T19:59:35.769Z,70.90
2022-11-13T20:02:02.475Z,70.80
2022-11-13T20:04:29.276Z,70.80
2022-11-13T20:06:58.808Z,70.90
2022-11-13T20:09:25.510Z,71.00
2022-11-13T20:11:52.215Z,71.20
2022-11-13T20:14:19.093Z,71.30
2022-11-13T20:16:45.809Z,71.60
2022-11-13T20:19:12.603Z,71.70
2022-11-13T20:21:40.875Z,71.80
2022-11-13T20:24:10.011Z,71.80
2022-11-13T20:26:36.819Z,71.90
2022-11-13T20:29:03.547Z,71.80
2022-11-13T20:31:30.544Z,71.90
2022-11-13T20:33:57.665Z,72.00
2022-11-13T20:36:25.199Z,72.00
2022-11-13T20:38:54.578Z,72.00
2022-11-13T20:41:21.652Z,72.10
2022-11-13T20:43:49.045Z,72.10
2022-11-13T20:46:17.686Z,72.20
2022-11-13T20:48:48.062Z,72.20
2022-11-13T20:51:20.566Z,72.10
2022-11-13T20:53:55.858Z,72.20
2022-11-13T20:56:24.993Z,72.20
2022-11-13T20:58:52.087Z,72.20
2022-11-13T21:01:21.852Z,72.20
2022-11-13T21:03:49.188Z,72.40
2022-11-13T21:06:21.493Z,72.40
2022-11-13T21:08:48.815Z,72.40
2022-11-13T21:11:19.071Z,72.40
2022-11-13T21:13:47.498Z,72.50
2022-11-13T21:16:14.577Z,72.60
2022-11-13T21:18:42.057Z,73.40
2022-11-13T21:21:11.866Z,72.70
2022-11-13T21:23:38.770Z,72.90
2022-11-13T21:26:07.191Z,72.80
2022-11-13T21:28:34.485Z,72.90
2022-11-13T21:31:07.108Z,72.90
2022-11-13T21:33:41.687Z,72.20
2022-11-13T21:36:21.913Z,72.90
2022-11-13T21:38:53.305Z,72.90
2022-11-13T21:41:26.897Z,72.90
2022-11-13T21:44:06.859Z,72.80
2022-11-13T21:46:38.545Z,72.90
2022-11-13T21:49:08.652Z,73.10
2022-11-13T21:51:37.150Z,73.00
2022-11-13T21:54:04.595Z,73.10
2022-11-13T21:56:32.949Z,73.10
2022-11-13T21:59:00.066Z,73.30
2022-11-13T22:01:27.336Z,73.20
2022-11-13T22:03:54.888Z,73.40
2022-11-13T22:06:24.298Z,73.40
2022-11-13T22:09:01.651Z,73.40
2022-11-13T22:11:30.705Z,73.50
2022-11-13T22:13:57.706Z,73.60
2022-11-13T22:16:25.942Z,73.60
2022-11-13T22:18:54.895Z,73.70
2022-11-13T22:21:23.386Z,73.80
2022-11-13T22:23:50.331Z,73.80
2022-11-13T22:26:18.397Z,73.60
2022-11-13T22:28:49.208Z,73.80
2022-11-13T22:31:40.049Z,73.80
2022-11-13T22:34:09.055Z,73.80
2022-11-13T22:36:36.910Z,73.70
2022-11-13T22:39:04.244Z,73.90
2022-11-13T22:41:33.388Z,73.90
2022-11-13T22:44:05.897Z,74.00
2022-11-13T22:46:34.809Z,74.10
2022-11-13T22:49:02.562Z,74.10
2022-11-13T22:51:38.599Z,74.20
2022-11-13T22:54:10.717Z,74.10
2022-11-13T22:56:38.998Z,74.10
2022-11-13T22:59:07.654Z,74.20
2022-11-13T23:01:36.624Z,74.10
2022-11-13T23:04:05.756Z,74.10
2022-11-13T23:06:34.224Z,74.20
2022-11-13T23:09:01.651Z,74.20
2022-11-13T23:11:34.676Z,74.10
2022-11-13T23:14:03.964Z,74.20
2022-11-13T23:16:31.629Z,74.20
2022-11-13T23:18:59.975Z,74.20
2022-11-13T23:21:28.085Z,74.30
2022-11-13T23:23:55.475Z,74.40
2022-11-13T23:26:23.129Z,74.30
2022-11-13T23:28:49.837Z,74.40
2022-11-13T23:31:16.884Z,74.40
2022-11-13T23:33:43.594Z,74.50
2022-11-13T23:36:12.538Z,74.60
2022-11-13T23:38:39.338Z,74.60
2022-11-13T23:41:06.615Z,74.60
2022-11-13T23:44:02.067Z,74.70
2022-11-13T23:46:20.312Z,74.70
2022-11-13T23:48:47.062Z,74.70
2022-11-13T23:51:13.791Z,74.70
2022-11-13T23:53:40.450Z,74.70
2022-11-13T23:56:08.132Z,74.70
2022-11-13T23:58:37.587Z,74.80
